Time;durP1;ratioP1;P1;durP2;ratioP2;P2;SDS_P1;SDS_P2;PMS_P1;PMS_P2;Temp;Humidity;BMP_temperature;BMP_pressure;BME280_temperature;BME280_humidity;BME280_pressure;Samples;Min_cycle;Max_cycle;Signal;HPM_P1;HPM_P2
2022/10/31 00:01:01;;;;;;;23.53;14.80;;;12.20;1.00;;;;;;5051658;28;20651;-73
2022/10/31 00:03:26;;;;;;;22.20;14.60;;;12.20;1.00;;;;;;5051426;28;20598;-76
2022/10/31 00:05:52;;;;;;;21.80;13.27;;;12.30;1.00;;;;;;5052426;28;20403;-72
2022/10/31 00:08:18;;;;;;;21.20;16.00;;;12.30;1.00;;;;;;5053034;28;20246;-74
2022/10/31 00:10:45;;;;;;;22.53;14.30;;;12.30;1.00;;;;;;5051239;28;20404;-75
2022/10/31 00:13:12;;;;;;;20.70;14.57;;;12.30;1.00;;;;;;5052931;28;20746;-72
2022/10/31 00:15:38;;;;;;;18.03;14.83;;;12.30;1.00;;;;;;5052220;28;20384;-74
2022/10/31 00:18:05;;;;;;;26.27;17.23;;;12.40;1.00;;;;;;5053052;28;20864;-74
2022/10/31 00:20:31;;;;;;;20.17;13.83;;;12.40;1.00;;;;;;5052389;28;20429;-74
2022/10/31 00:23:01;;;;;;;30.47;17.60;;;12.40;1.00;;;;;;5052447;28;20543;-73
2022/10/31 00:25:28;;;;;;;24.30;16.43;;;12.40;1.00;;;;;;5051087;28;20911;-72
2022/10/31 00:27:54;;;;;;;26.47;18.80;;;12.50;1.00;;;;;;5051598;28;20427;-74
2022/10/31 00:30:20;;;;;;;25.70;18.33;;;12.70;1.00;;;;;;5052162;28;20399;-71
2022/10/31 00:32:45;;;;;;;27.80;18.37;;;12.90;1.00;;;;;;5053034;28;20168;-73
2022/10/31 00:35:11;;;;;;;33.60;20.60;;;13.10;61.20;;;;;;5051800;28;20178;-72
2022/10/31 00:37:37;;;;;;;30.47;17.90;;;13.20;97.20;;;;;;5051936;28;20190;-72
2022/10/31 00:40:03;;;;;;;31.50;20.70;;;13.30;99.90;;;;;;5051283;28;20598;-74
2022/10/31 00:42:28;;;;;;;33.37;18.60;;;13.30;99.90;;;;;;5051119;28;20663;-72
2022/10/31 00:44:54;;;;;;;26.97;20.13;;;13.40;99.90;;;;;;5051915;28;20749;-73
2022/10/31 00:47:19;;;;;;;27.30;19.77;;;13.40;99.90;;;;;;5052592;28;20205;-72
2022/10/31 00:49:45;;;;;;;33.17;19.33;;;13.40;99.90;;;;;;5054463;28;20190;-72
2022/10/31 00:52:10;;;;;;;24.53;17.97;;;13.40;99.90;;;;;;5056508;28;20190;-73
2022/10/31 00:54:36;;;;;;;32.73;19.87;;;13.40;99.90;;;;;;5054197;28;20167;-75
2022/10/31 00:57:02;;;;;;;25.23;17.40;;;13.40;99.90;;;;;;5056263;28;20195;-75
2022/10/31 00:59:28;;;;;;;20.30;16.30;;;13.40;99.90;;;;;;5053762;28;20179;-75
2022/10/31 01:01:53;;;;;;;26.53;18.57;;;13.30;99.90;;;;;;5056237;28;20762;-72
2022/10/31 01:04:19;;;;;;;27.50;16.70;;;13.30;99.90;;;;;;5053912;28;20201;-72
2022/10/31 01:06:45;;;;;;;27.93;18.20;;;13.30;99.90;;;;;;5055293;28;20199;-73
2022/10/31 01:09:10;;;;;;;27.07;17.63;;;13.20;99.90;;;;;;5055093;28;20254;-74
2022/10/31 01:11:36;;;;;;;31.50;16.47;;;13.30;99.90;;;;;;5055944;28;20658;-73
2022/10/31 01:14:02;;;;;;;31.27;19.90;;;13.30;99.90;;;;;;5055228;28;20175;-72
2022/10/31 01:16:29;;;;;;;22.13;15.87;;;13.30;99.90;;;;;;5055744;28;20190;-73
2022/10/31 01:18:55;;;;;;;27.10;18.90;;;13.40;99.90;;;;;;5054805;28;20170;-72
2022/10/31 01:21:26;;;;;;;29.47;18.00;;;13.30;99.90;;;;;;5055660;28;20380;-73
2022/10/31 01:23:55;;;;;;;24.97;17.20;;;13.30;99.90;;;;;;5055268;28;20390;-71
2022/10/31 01:26:27;;;;;;;21.60;17.27;;;13.30;99.90;;;;;;5055627;28;20494;-75
2022/10/31 01:28:58;;;;;;;21.80;16.60;;;13.20;99.90;;;;;;5054990;28;20787;-72
2022/10/31 01:31:27;;;;;;;22.43;15.87;;;13.20;99.90;;;;;;5055337;28;20962;-73
2022/10/31 01:33:54;;;;;;;25.10;16.70;;;13.10;99.90;;;;;;5054602;28;20415;-75
2022/10/31 01:36:24;;;;;;;27.43;18.93;;;13.10;99.90;;;;;;5054270;28;20449;-72
2022/10/31 01:38:51;;;;;;;32.03;17.93;;;13.10;99.90;;;;;;5055743;28;20412;-72
2022/10/31 01:41:22;;;;;;;26.37;18.17;;;13.20;99.90;;;;;;5054703;28;20496;-73
2022/10/31 01:43:50;;;;;;;25.77;18.37;;;13.10;99.90;;;;;;5054554;28;20397;-75
2022/10/31 01:46:21;;;;;;;28.17;18.00;;;13.10;99.90;;;;;;5055409;28;20392;-75
2022/10/31 01:48:47;;;;;;;29.93;19.30;;;13.10;99.90;;;;;;5055322;28;20499;-73
2022/10/31 01:51:16;;;;;;;25.00;18.27;;;13.10;99.90;;;;;;5054020;28;20970;-74
2022/10/31 01:53:43;;;;;;;28.97;20.50;;;13.10;99.90;;;;;;5054348;28;20384;-73
2022/10/31 01:56:10;;;;;;;34.03;23.37;;;13.20;99.90;;;;;;5055470;28;20493;-72
2022/10/31 01:58:35;;;;;;;28.43;21.07;;;13.20;99.90;;;;;;5055369;28;20384;-72
2022/10/31 02:01:02;;;;;;;31.63;22.37;;;13.20;99.90;;;;;;5053327;28;20499;-73
2022/10/31 02:03:29;;;;;;;30.20;22.03;;;13.30;99.90;;;;;;5054799;28;20547;-75
2022/10/31 02:05:56;;;;;;;30.90;22.70;;;13.40;99.90;;;;;;5054281;28;20869;-75
2022/10/31 02:08:27;;;;;;;33.57;22.40;;;13.40;99.90;;;;;;5054453;28;20449;-72
2022/10/31 02:10:55;;;;;;;36.63;21.30;;;13.40;99.90;;;;;;5054109;28;20404;-72
2022/10/31 02:13:23;;;;;;;47.93;24.27;;;13.50;99.90;;;;;;5054113;28;20459;-73
2022/10/31 02:15:57;;;;;;;39.00;23.70;;;13.60;99.90;;;;;;5053786;28;20752;-73
2022/10/31 02:18:24;;;;;;;36.67;22.80;;;13.60;99.90;;;;;;5054863;28;20778;-75
2022/10/31 02:21:15;;;;;;;36.33;22.70;;;13.60;99.90;;;;;;5053775;28;20404;-72
2022/10/31 02:24:02;;;;;;;44.00;24.00;;;13.70;99.90;;;;;;5052805;28;20399;-73
2022/10/31 02:26:43;;;;;;;43.10;25.77;;;13.70;99.90;;;;;;5054246;28;20413;-75
2022/10/31 02:29:28;;;;;;;41.93;24.47;;;13.70;99.90;;;;;;5053774;28;20399;-75
2022/10/31 02:32:17;;;;;;;30.07;21.40;;;13.70;99.90;;;;;;5053787;28;20810;-75
2022/10/31 02:34:55;;;;;;;43.93;23.87;;;13.70;99.90;;;;;;5052517;28;20419;-72
2022/10/31 02:37:49;;;;;;;38.43;24.60;;;13.70;99.90;;;;;;5054350;28;20429;-72
2022/10/31 02:40:17;;;;;;;42.73;22.03;;;13.70;99.90;;;;;;5052684;28;20768;-72
2022/10/31 02:43:05;;;;;;;29.97;20.00;;;13.80;99.90;;;;;;5054302;28;20400;-74
2022/10/31 02:45:54;;;;;;;33.13;23.10;;;13.70;99.90;;;;;;5053014;28;20414;-73
2022/10/31 02:48:26;;;;;;;35.93;22.60;;;13.70;99.90;;;;;;5054124;28;20549;-76
2022/10/31 02:51:00;;;;;;;42.70;24.13;;;13.70;99.90;;;;;;5053405;28;20425;-75
2022/10/31 02:53:26;;;;;;;38.30;23.53;;;13.70;99.90;;;;;;5053886;28;20393;-75
2022/10/31 02:56:06;;;;;;;47.43;23.47;;;13.70;99.90;;;;;;5052551;28;20472;-75
2022/10/31 02:58:37;;;;;;;39.27;23.30;;;13.70;99.90;;;;;;5054040;28;20167;-71
2022/10/31 03:01:27;;;;;;;44.03;22.10;;;13.70;99.90;;;;;;5053168;28;20436;-71
2022/10/31 03:04:15;;;;;;;41.20;22.87;;;13.70;99.90;;;;;;5052613;28;20411;-74
2022/10/31 03:06:58;;;;;;;34.53;23.00;;;13.70;99.90;;;;;;5053642;28;20444;-75
2022/10/31 03:09:52;;;;;;;41.13;23.37;;;13.70;99.90;;;;;;5053803;28;20453;-72
2022/10/31 03:12:35;;;;;;;40.17;23.70;;;13.70;99.90;;;;;;5056611;28;20443;-76
2022/10/31 03:15:43;;;;;;;36.77;23.47;;;13.70;99.90;;;;;;5052831;28;20401;-72
2022/10/31 03:18:15;;;;;;;39.53;23.57;;;13.80;99.90;;;;;;5042992;28;20418;-72
2022/10/31 03:20:55;;;;;;;40.63;22.40;;;13.80;99.90;;;;;;5050222;28;20425;-73
2022/10/31 03:23:24;;;;;;;44.10;23.00;;;13.80;99.90;;;;;;5048479;28;20571;-76
2022/10/31 03:25:52;;;;;;;46.57;22.30;;;13.80;99.90;;;;;;5052927;28;20425;-75
2022/10/31 03:28:23;;;;;;;38.73;23.10;;;13.80;99.90;;;;;;5053559;28;20444;-74
2022/10/31 03:30:51;;;;;;;37.83;21.53;;;13.80;99.90;;;;;;5052672;28;20426;-75
2022/10/31 03:33:23;;;;;;;39.47;23.07;;;13.90;1.00;;;;;;5053645;28;20793;-72
2022/10/31 03:35:52;;;;;;;44.33;24.57;;;13.90;1.00;;;;;;5052651;28;20413;-71
2022/10/31 03:38:19;;;;;;;43.77;23.70;;;13.80;1.00;;;;;;5052026;28;20404;-73
2022/10/31 03:40:47;;;;;;;43.27;22.60;;;13.80;1.00;;;;;;5052471;28;20437;-74
2022/10/31 03:43:19;;;;;;;29.30;19.23;;;13.80;1.00;;;;;;5052897;28;20410;-75
2022/10/31 03:45:47;;;;;;;41.93;25.30;;;13.80;1.00;;;;;;5052572;28;20992;-72
2022/10/31 03:48:14;;;;;;;39.60;22.70;;;13.80;1.00;;;;;;5052405;28;20439;-72
2022/10/31 03:51:07;;;;;;;33.13;21.97;;;13.80;1.00;;;;;;5052811;28;20400;-75
2022/10/31 03:53:52;;;;;;;42.33;24.43;;;13.80;1.00;;;;;;5053104;28;20463;-72
2022/10/31 03:56:41;;;;;;;33.97;20.73;;;13.80;1.00;;;;;;5053248;28;20478;-75
2022/10/31 03:59:28;;;;;;;38.90;23.10;;;13.80;1.00;;;;;;5052877;28;20883;-72
2022/10/31 04:01:59;;;;;;;37.77;22.47;;;13.80;1.00;;;;;;5033274;28;20407;-72
2022/10/31 04:04:25;;;;;;;40.00;23.37;;;13.80;1.00;;;;;;5030937;28;21012;-75
2022/10/31 04:06:53;;;;;;;44.40;22.93;;;13.70;99.90;;;;;;5033029;28;20415;-73
2022/10/31 04:09:20;;;;;;;35.33;24.00;;;13.70;1.00;;;;;;5033347;28;20398;-72
2022/10/31 04:11:51;;;;;;;42.43;24.07;;;13.80;1.00;;;;;;5050283;28;20433;-75
2022/10/31 04:14:17;;;;;;;39.90;22.90;;;13.80;1.00;;;;;;5051341;28;20991;-71
2022/10/31 04:16:43;;;;;;;40.53;23.53;;;13.90;1.00;;;;;;5050704;28;20419;-75
2022/10/31 04:19:11;;;;;;;44.10;23.33;;;13.90;1.00;;;;;;5052005;28;20696;-74
2022/10/31 04:21:36;;;;;;;38.43;23.00;;;13.90;1.00;;;;;;5033353;28;20413;-72
2022/10/31 04:24:02;;;;;;;40.40;23.57;;;13.90;1.00;;;;;;5037821;28;20461;-76
2022/10/31 04:26:28;;;;;;;40.57;22.93;;;13.90;1.00;;;;;;5056877;28;20258;-72
2022/10/31 04:28:53;;;;;;;38.40;22.97;;;13.90;1.00;;;;;;5056792;28;21013;-73
2022/10/31 04:31:19;;;;;;;41.03;23.17;;;13.90;1.00;;;;;;5056892;28;20265;-75
2022/10/31 04:33:45;;;;;;;38.10;23.20;;;14.00;1.00;;;;;;5055704;28;20170;-72
2022/10/31 04:36:11;;;;;;;41.03;22.10;;;14.00;1.00;;;;;;5055564;28;20562;-75
2022/10/31 04:38:36;;;;;;;44.87;23.43;;;14.00;1.00;;;;;;5056096;28;20588;-75
2022/10/31 04:41:02;;;;;;;43.47;23.50;;;14.00;1.00;;;;;;5056621;28;20466;-73
2022/10/31 04:43:28;;;;;;;40.70;24.60;;;14.00;1.00;;;;;;5055520;28;20179;-76
2022/10/31 04:45:53;;;;;;;41.60;23.63;;;14.00;1.00;;;;;;5054973;28;20720;-72
2022/10/31 04:48:19;;;;;;;36.87;21.87;;;14.00;1.00;;;;;;5056556;28;20194;-72
2022/10/31 04:50:45;;;;;;;39.50;22.97;;;14.00;1.00;;;;;;5056014;28;20167;-73
2022/10/31 04:53:10;;;;;;;37.93;21.43;;;14.00;1.00;;;;;;5056297;28;20163;-76
2022/10/31 04:55:36;;;;;;;40.17;24.20;;;14.00;1.00;;;;;;5054420;28;20194;-72
2022/10/31 04:58:02;;;;;;;35.17;21.30;;;14.10;1.00;;;;;;5056345;28;20253;-72
2022/10/31 05:00:28;;;;;;;43.97;24.70;;;14.10;1.00;;;;;;5056268;28;20879;-72
2022/10/31 05:02:56;;;;;;;34.00;20.10;;;14.10;1.00;;;;;;5056059;28;20418;-76
2022/10/31 05:05:27;;;;;;;37.77;19.30;;;14.00;1.00;;;;;;5054252;28;20930;-76
2022/10/31 05:07:53;;;;;;;35.47;20.70;;;14.00;1.00;;;;;;5055692;28;20463;-72
2022/10/31 05:10:21;;;;;;;39.93;21.43;;;14.10;1.00;;;;;;5055267;28;20433;-76
2022/10/31 05:12:52;;;;;;;40.20;21.00;;;14.00;1.00;;;;;;5055984;28;20405;-75
2022/10/31 05:15:20;;;;;;;36.03;21.30;;;14.00;1.00;;;;;;5054128;28;20403;-76
2022/10/31 05:17:46;;;;;;;32.63;19.60;;;14.00;1.00;;;;;;5054505;28;20413;-75
2022/10/31 05:20:14;;;;;;;37.90;21.10;;;14.00;1.00;;;;;;5056016;28;20902;-72
2022/10/31 05:22:47;;;;;;;39.40;19.20;;;13.90;1.00;;;;;;5056067;28;20484;-75
2022/10/31 05:25:13;;;;;;;32.37;19.40;;;13.90;1.00;;;;;;5053499;28;20432;-76
2022/10/31 05:27:41;;;;;;;32.20;18.73;;;13.90;99.90;;;;;;5055437;28;20949;-72
2022/10/31 05:30:08;;;;;;;31.57;18.93;;;13.90;99.90;;;;;;5055746;28;20942;-72
2022/10/31 05:32:44;;;;;;;31.43;18.47;;;13.90;99.90;;;;;;5055087;28;20407;-72
2022/10/31 05:35:12;;;;;;;36.07;18.67;;;13.80;99.90;;;;;;5051982;28;20429;-73
2022/10/31 05:37:38;;;;;;;39.43;18.47;;;13.80;99.90;;;;;;5053704;28;20431;-72
2022/10/31 05:40:06;;;;;;;45.40;18.67;;;13.80;99.90;;;;;;5055499;28;20425;-75
2022/10/31 05:42:32;;;;;;;37.37;21.73;;;13.80;99.90;;;;;;5055006;28;20179;-75
2022/10/31 05:44:58;;;;;;;39.57;18.90;;;13.80;99.90;;;;;;5053719;28;20448;-75
2022/10/31 05:47:24;;;;;;;34.87;18.50;;;13.80;99.90;;;;;;5055230;28;20460;-75
2022/10/31 05:49:50;;;;;;;39.57;19.70;;;13.80;99.90;;;;;;5055420;28;20182;-72
2022/10/31 05:52:16;;;;;;;36.53;20.27;;;13.80;99.90;;;;;;5054816;28;20442;-73
2022/10/31 05:54:41;;;;;;;38.77;18.47;;;13.80;99.90;;;;;;5053474;28;20464;-75
2022/10/31 05:57:07;;;;;;;40.33;19.23;;;13.80;99.90;;;;;;5055148;28;20512;-71
2022/10/31 05:59:33;;;;;;;39.23;17.83;;;13.80;99.90;;;;;;5054609;28;20209;-75
2022/10/31 06:01:58;;;;;;;41.20;19.43;;;13.80;99.90;;;;;;5053830;28;20175;-76
2022/10/31 06:04:24;;;;;;;27.90;15.40;;;13.80;99.90;;;;;;5052183;28;20263;-76
2022/10/31 06:06:50;;;;;;;37.23;21.63;;;13.80;99.90;;;;;;5054780;28;20634;-75
2022/10/31 06:09:15;;;;;;;36.90;15.47;;;13.90;1.00;;;;;;5070399;28;20586;-75
2022/10/31 06:11:41;;;;;;;36.77;18.03;;;13.80;1.00;;;;;;5054893;28;20179;-76
2022/10/31 06:14:07;;;;;;;33.30;15.53;;;13.80;99.90;;;;;;5054014;28;20193;-76
2022/10/31 06:16:33;;;;;;;30.83;16.10;;;13.70;99.90;;;;;;5053920;28;20691;-75
2022/10/31 06:18:58;;;;;;;32.30;17.40;;;13.70;99.90;;;;;;5061082;28;20190;-72
2022/10/31 06:21:24;;;;;;;29.40;16.83;;;13.70;99.90;;;;;;5060211;28;20824;-72
2022/10/31 06:23:50;;;;;;;31.27;15.03;;;13.70;1.00;;;;;;5053649;28;20185;-76
2022/10/31 06:26:16;;;;;;;25.93;16.00;;;13.70;1.00;;;;;;5054764;28;20682;-75
2022/10/31 06:28:41;;;;;;;32.20;16.50;;;13.60;99.90;;;;;;5054506;28;20552;-72
2022/10/31 06:31:07;;;;;;;29.07;14.07;;;13.60;99.90;;;;;;5053510;28;20232;-75
2022/10/31 06:33:33;;;;;;;36.07;15.90;;;13.50;99.90;;;;;;5054231;28;20295;-73
2022/10/31 06:35:59;;;;;;;40.00;17.80;;;13.50;99.90;;;;;;5053786;28;20202;-76
2022/10/31 06:38:26;;;;;;;29.07;16.00;;;13.60;99.90;;;;;;5053996;28;20767;-75
2022/10/31 06:40:52;;;;;;;32.97;16.50;;;13.60;1.00;;;;;;5053311;28;20179;-73
2022/10/31 06:43:18;;;;;;;30.77;16.23;;;13.70;99.90;;;;;;5054357;28;20934;-79
2022/10/31 06:45:44;;;;;;;32.63;15.80;;;13.70;99.90;;;;;;5053506;28;20571;-74
2022/10/31 06:48:09;;;;;;;28.40;14.63;;;13.70;1.00;;;;;;5053710;28;20239;-73
2022/10/31 06:50:35;;;;;;;27.00;15.03;;;13.70;1.00;;;;;;5052429;28;20253;-74
2022/10/31 06:53:01;;;;;;;26.27;14.10;;;13.70;1.00;;;;;;5054115;28;20178;-75
2022/10/31 06:55:27;;;;;;;29.17;14.37;;;13.70;99.90;;;;;;5052762;28;20193;-75
2022/10/31 06:58:00;;;;;;;29.87;14.43;;;13.70;99.90;;;;;;5054058;28;20397;-74
2022/10/31 07:00:28;;;;;;;35.67;17.53;;;13.70;99.90;;;;;;5052646;28;20170;-76
2022/10/31 07:03:01;;;;;;;42.33;16.30;;;13.80;1.00;;;;;;5054036;28;20412;-72
2022/10/31 07:05:27;;;;;;;32.73;15.73;;;13.80;99.90;;;;;;5052894;28;20408;-73
2022/10/31 07:08:02;;;;;;;31.80;15.57;;;13.70;99.90;;;;;;5053839;28;20812;-76
2022/10/31 07:10:30;;;;;;;26.90;14.10;;;13.70;99.90;;;;;;5051939;28;20409;-73
2022/10/31 07:12:57;;;;;;;26.07;16.30;;;13.80;1.00;;;;;;5052954;28;20418;-76
2022/10/31 07:15:24;;;;;;;23.07;15.30;;;13.70;1.00;;;;;;5052602;28;20506;-75
2022/10/31 07:17:50;;;;;;;34.63;14.17;;;13.70;1.00;;;;;;5052392;28;20764;-76
2022/10/31 07:20:16;;;;;;;20.80;12.40;;;13.70;99.90;;;;;;5053541;28;20449;-74
2022/10/31 07:22:41;;;;;;;21.60;13.27;;;13.70;1.00;;;;;;5052212;28;20193;-76
2022/10/31 07:25:08;;;;;;;23.90;13.60;;;13.70;1.00;;;;;;5052632;28;20650;-72
2022/10/31 07:27:41;;;;;;;26.90;11.40;;;13.70;99.90;;;;;;5052736;28;20210;-72
2022/10/31 07:30:09;;;;;;;25.20;14.50;;;13.60;99.90;;;;;;5053014;28;20408;-73
2022/10/31 07:32:48;;;;;;;24.17;13.40;;;13.70;99.90;;;;;;5052220;28;20440;-73
2022/10/31 07:35:17;;;;;;;21.77;13.23;;;13.60;99.90;;;;;;5052574;28;20399;-71
2022/10/31 07:37:42;;;;;;;24.50;13.87;;;13.70;99.90;;;;;;5053641;28;20464;-75
2022/10/31 07:40:09;;;;;;;22.77;14.53;;;13.70;99.90;;;;;;5053545;28;20441;-77
2022/10/31 07:42:42;;;;;;;24.03;14.13;;;13.80;99.90;;;;;;5051648;28;20630;-73
2022/10/31 07:45:10;;;;;;;19.43;12.30;;;13.80;99.90;;;;;;5051810;28;20436;-73
2022/10/31 07:47:40;;;;;;;30.00;12.93;;;13.90;99.90;;;;;;5053256;28;20539;-73
2022/10/31 07:50:07;;;;;;;26.40;13.30;;;14.00;99.90;;;;;;5052963;28;20399;-73
2022/10/31 07:52:33;;;;;;;26.47;13.57;;;13.90;99.90;;;;;;5052392;28;20451;-76
2022/10/31 07:54:58;;;;;;;27.80;13.67;;;13.90;99.90;;;;;;5051591;28;20523;-76
2022/10/31 07:57:24;;;;;;;21.33;12.80;;;13.90;99.90;;;;;;5053229;28;20199;-75
2022/10/31 07:59:50;;;;;;;18.97;13.27;;;13.90;99.90;;;;;;5056062;28;20170;-75
2022/10/31 08:02:15;;;;;;;22.20;13.27;;;13.90;99.90;;;;;;5055514;28;20187;-73
2022/10/31 08:04:41;;;;;;;22.53;13.13;;;14.00;99.90;;;;;;5056250;28;20190;-72
2022/10/31 08:07:06;;;;;;;21.83;11.73;;;14.00;99.90;;;;;;5056725;28;20280;-72
2022/10/31 08:09:32;;;;;;;28.17;10.07;;;13.80;99.90;;;;;;5057264;28;20171;-76
2022/10/31 08:11:58;;;;;;;17.33;8.60;;;13.80;99.90;;;;;;5056186;28;20276;-75
2022/10/31 08:14:23;;;;;;;26.77;10.53;;;13.70;99.90;;;;;;5056297;28;20301;-73
2022/10/31 08:16:49;;;;;;;20.40;10.50;;;13.60;99.90;;;;;;5056977;28;20198;-76
2022/10/31 08:19:15;;;;;;;25.97;11.80;;;13.60;99.90;;;;;;5057198;28;20202;-76
2022/10/31 08:21:40;;;;;;;20.17;11.00;;;13.50;99.90;;;;;;5056172;28;20195;-73
2022/10/31 08:24:06;;;;;;;16.63;9.97;;;13.50;99.90;;;;;;5056095;28;20220;-72
2022/10/31 08:26:32;;;;;;;25.77;9.83;;;13.50;99.90;;;;;;5056345;28;20202;-73
2022/10/31 08:28:58;;;;;;;23.23;9.40;;;13.40;99.90;;;;;;5055697;28;20203;-73
2022/10/31 08:31:26;;;;;;;14.07;9.57;;;13.40;99.90;;;;;;5056613;28;20471;-78
2022/10/31 08:33:52;;;;;;;13.43;9.63;;;13.40;99.90;;;;;;5055609;28;20173;-76
2022/10/31 08:36:19;;;;;;;15.97;10.43;;;13.50;99.90;;;;;;5055242;28;20426;-76
2022/10/31 08:38:46;;;;;;;23.53;9.17;;;13.50;99.90;;;;;;5057213;28;20856;-75
2022/10/31 08:41:12;;;;;;;17.10;9.57;;;13.60;99.90;;;;;;5054519;28;20499;-75
2022/10/31 08:43:37;;;;;;;23.73;9.30;;;13.60;99.90;;;;;;5050267;28;21072;-80
2022/10/31 08:46:04;;;;;;;13.77;9.07;;;13.40;99.90;;;;;;5056321;28;20277;-75
2022/10/31 08:48:30;;;;;;;12.90;9.50;;;13.40;99.90;;;;;;5056569;28;20191;-75
2022/10/31 08:50:59;;;;;;;14.17;8.20;;;13.20;99.90;;;;;;5056446;28;20393;-75
2022/10/31 08:53:25;;;;;;;16.80;8.97;;;13.20;99.90;;;;;;5053054;28;20771;-75
2022/10/31 08:55:54;;;;;;;15.17;9.33;;;13.20;99.90;;;;;;5053936;28;20454;-77
2022/10/31 08:58:20;;;;;;;22.23;8.70;;;13.30;99.90;;;;;;5053304;28;20516;-72
2022/10/31 09:00:49;;;;;;;13.33;8.30;;;13.30;99.90;;;;;;5036429;28;20446;-75
2022/10/31 09:03:26;;;;;;;31.30;10.33;;;13.30;99.90;;;;;;5035513;28;20427;-74
2022/10/31 09:05:56;;;;;;;20.93;9.33;;;13.40;99.90;;;;;;5041010;28;20423;-72
2022/10/31 09:08:22;;;;;;;23.97;9.77;;;13.30;99.90;;;;;;5055009;28;20952;-72
2022/10/31 09:10:48;;;;;;;24.43;9.20;;;13.40;99.90;;;;;;5054411;28;20429;-71
2022/10/31 09:13:17;;;;;;;22.03;8.23;;;13.40;99.90;;;;;;5055261;28;20411;-72
2022/10/31 09:15:44;;;;;;;21.83;9.20;;;13.40;99.90;;;;;;5054001;28;20199;-77
2022/10/31 09:18:11;;;;;;;14.50;9.43;;;13.40;99.90;;;;;;5056118;28;20915;-78
2022/10/31 09:20:38;;;;;;;20.70;8.80;;;13.30;99.90;;;;;;5055228;28;20414;-77
2022/10/31 09:23:12;;;;;;;18.20;8.10;;;13.30;99.90;;;;;;5052986;28;20421;-73
2022/10/31 09:25:38;;;;;;;24.50;7.93;;;13.20;99.90;;;;;;5048115;28;20464;-77
2022/10/31 09:28:06;;;;;;;17.77;9.93;;;13.20;99.90;;;;;;5054635;28;20468;-77
2022/10/31 09:30:33;;;;;;;23.33;9.10;;;13.20;99.90;;;;;;5041437;28;20426;-78
2022/10/31 09:33:11;;;;;;;13.73;8.70;;;13.20;99.90;;;;;;5046636;28;20763;-76
2022/10/31 09:35:38;;;;;;;15.90;8.47;;;13.20;99.90;;;;;;5052238;28;20448;-77
2022/10/31 09:38:15;;;;;;;16.47;8.90;;;13.30;99.90;;;;;;5054037;28;20430;-76
2022/10/31 09:40:43;;;;;;;11.73;8.43;;;13.20;99.90;;;;;;5055265;28;20404;-77
2022/10/31 09:43:29;;;;;;;13.73;9.03;;;13.30;99.90;;;;;;5045305;28;20824;-77
2022/10/31 09:46:18;;;;;;;12.50;8.50;;;13.40;99.90;;;;;;5050473;28;20463;-76
2022/10/31 09:49:12;;;;;;;16.47;8.87;;;13.40;99.90;;;;;;5054130;28;20524;-73
2022/10/31 09:51:43;;;;;;;15.43;9.30;;;13.40;99.90;;;;;;5052798;28;20440;-76
2022/10/31 09:54:40;;;;;;;13.30;8.20;;;13.40;99.90;;;;;;5048567;28;20420;-76
2022/10/31 09:57:14;;;;;;;13.50;8.03;;;13.50;99.90;;;;;;5042659;28;20958;-76
2022/10/31 09:59:41;;;;;;;10.17;6.97;;;13.60;99.90;;;;;;5038275;28;20794;-73
2022/10/31 10:02:23;;;;;;;10.90;7.70;;;13.50;99.90;;;;;;5055122;28;20395;-77
2022/10/31 10:04:56;;;;;;;13.77;7.83;;;13.60;99.90;;;;;;5051910;28;20436;-76
2022/10/31 10:07:38;;;;;;;13.73;7.40;;;13.70;99.90;;;;;;5052720;28;20443;-78
2022/10/31 10:10:25;;;;;;;13.20;7.37;;;13.90;99.90;;;;;;5055202;28;20468;-77
2022/10/31 10:13:22;;;;;;;13.17;7.03;;;13.90;99.90;;;;;;5053495;28;20839;-76
2022/10/31 10:16:22;;;;;;;11.50;7.50;;;14.00;99.90;;;;;;5054071;28;20421;-72
2022/10/31 10:19:11;;;;;;;14.70;8.00;;;13.90;99.90;;;;;;5054036;28;20439;-72
2022/10/31 10:21:45;;;;;;;15.47;7.83;;;14.00;99.90;;;;;;5053861;28;20770;-75
2022/10/31 10:24:44;;;;;;;13.73;7.60;;;13.90;99.90;;;;;;5054474;28;20879;-74
2022/10/31 10:27:34;;;;;;;9.50;7.20;;;13.90;99.90;;;;;;5054479;28;20490;-76
2022/10/31 10:30:20;;;;;;;16.70;9.10;;;13.80;99.90;;;;;;5034632;28;20411;-72
2022/10/31 10:32:59;;;;;;;19.17;8.87;;;13.80;99.90;;;;;;5032989;28;20418;-72
2022/10/31 10:35:34;;;;;;;15.77;8.97;;;13.80;99.90;;;;;;5049098;28;20437;-73
2022/10/31 10:38:17;;;;;;;15.60;9.43;;;14.00;99.90;;;;;;5038941;28;20994;-73
2022/10/31 10:40:43;;;;;;;17.23;9.50;;;14.10;99.90;;;;;;5054490;28;20408;-75
2022/10/31 10:49:00;;;;;;;13.00;8.30;;;14.40;99.90;;;;;;5053301;28;20876;-77
2022/10/31 10:51:37;;;;;;;15.47;9.30;;;14.40;99.90;;;;;;5053659;28;20805;-77
2022/10/31 10:54:19;;;;;;;12.00;8.30;;;14.50;99.90;;;;;;5053319;28;20910;-73
2022/10/31 10:56:53;;;;;;;15.77;9.30;;;14.60;99.90;;;;;;5054416;28;20885;-77
2022/10/31 10:59:21;;;;;;;16.80;8.83;;;14.60;99.90;;;;;;5053860;28;20982;-73
2022/10/31 11:01:50;;;;;;;14.43;9.90;;;14.70;99.90;;;;;;5053984;28;20405;-76
2022/10/31 11:04:34;;;;;;;17.73;10.10;;;14.80;99.90;;;;;;5052238;28;20481;-72
2022/10/31 11:07:05;;;;;;;20.17;10.00;;;14.70;99.90;;;;;;5053659;28;20935;-76
2022/10/31 11:09:31;;;;;;;19.00;8.03;;;14.70;99.90;;;;;;5033703;28;20486;-75
2022/10/31 11:12:05;;;;;;;14.00;8.77;;;14.70;99.90;;;;;;5033907;28;20818;-77
2022/10/31 11:14:31;;;;;;;14.10;9.20;;;14.70;99.90;;;;;;5046681;28;20441;-77
2022/10/31 11:17:45;;;;;;;13.90;8.07;;;14.70;99.90;;;;;;5053171;28;20420;-72
2022/10/31 11:20:13;;;;;;;16.27;9.00;;;14.80;99.90;;;;;;5020680;28;20436;-78
2022/10/31 11:22:42;;;;;;;16.63;9.37;;;14.90;99.90;;;;;;5033973;28;20376;-78
2022/10/31 11:25:19;;;;;;;13.10;8.40;;;15.00;99.90;;;;;;5032770;28;20479;-78
2022/10/31 11:28:05;;;;;;;15.87;8.03;;;15.10;99.90;;;;;;5041282;28;20526;-73
2022/10/31 11:30:41;;;;;;;15.60;8.37;;;15.10;99.90;;;;;;5059687;28;20425;-77
2022/10/31 11:33:17;;;;;;;11.43;7.20;;;15.10;99.90;;;;;;5054638;28;20433;-71
2022/10/31 11:35:44;;;;;;;14.60;9.17;;;15.10;97.50;;;;;;5071634;28;20432;-73
2022/10/31 11:38:18;;;;;;;12.03;7.23;;;15.10;84.30;;;;;;5063596;28;20460;-75
2022/10/31 11:40:56;;;;;;;18.17;8.90;;;15.20;70.70;;;;;;5041895;28;20433;-76
2022/10/31 11:43:23;;;;;;;10.57;7.33;;;15.30;64.20;;;;;;5036382;28;20441;-72
2022/10/31 11:45:49;;;;;;;12.50;7.97;;;15.30;46.30;;;;;;5052488;28;20456;-71
2022/10/31 11:48:20;;;;;;;11.73;7.23;;;15.40;28.70;;;;;;5049033;28;20802;-78
2022/10/31 11:50:56;;;;;;;13.83;8.10;;;15.40;9.40;;;;;;5043114;28;20999;-72
2022/10/31 11:53:29;;;;;;;15.30;8.93;;;15.50;4.10;;;;;;5036090;28;20550;-75
2022/10/31 11:56:13;;;;;;;13.80;7.77;;;15.60;1.00;;;;;;5047179;28;20454;-73
2022/10/31 11:58:40;;;;;;;10.80;6.53;;;15.60;1.00;;;;;;5039989;28;20441;-77
2022/10/31 12:01:05;;;;;;;14.70;8.33;;;15.50;1.00;;;;;;5044119;28;20450;-77
2022/10/31 12:03:38;;;;;;;12.10;7.90;;;15.60;1.00;;;;;;5042884;28;21337;-75
2022/10/31 12:06:26;;;;;;;9.53;6.43;;;15.60;1.00;;;;;;5051973;28;20316;-77
2022/10/31 12:08:51;;;;;;;13.17;7.30;;;15.80;1.00;;;;;;5042445;28;20519;-77
2022/10/31 12:11:29;;;;;;;9.23;6.60;;;15.80;1.00;;;;;;5052344;28;20433;-71
2022/10/31 12:14:17;;;;;;;10.47;7.50;;;15.80;1.00;;;;;;5069830;28;20661;-71
2022/10/31 12:17:01;;;;;;;13.23;6.70;;;15.70;1.00;;;;;;5073024;28;20430;-75
2022/10/31 12:19:37;;;;;;;15.87;7.20;;;15.80;1.00;;;;;;5058906;28;20436;-71
2022/10/31 12:22:19;;;;;;;12.13;6.70;;;15.80;1.00;;;;;;5052995;28;20423;-76
2022/10/31 12:24:54;;;;;;;17.77;6.97;;;15.90;1.00;;;;;;5057856;28;20460;-75
2022/10/31 12:27:48;;;;;;;9.67;6.33;;;15.90;1.00;;;;;;5072437;28;20424;-77
2022/10/31 12:30:54;;;;;;;13.13;7.13;;;15.90;1.00;;;;;;5053207;28;21019;-73
2022/10/31 12:33:51;;;;;;;14.57;7.03;;;15.80;1.00;;;;;;5031846;28;20466;-78
2022/10/31 12:36:31;;;;;;;15.07;7.50;;;15.80;99.90;;;;;;5048669;28;20844;-78
2022/10/31 12:39:22;;;;;;;11.50;7.37;;;15.70;99.90;;;;;;5051754;28;20444;-77
2022/10/31 12:42:12;;;;;;;13.37;7.93;;;15.70;1.00;;;;;;5047896;28;20397;-77
2022/10/31 12:44:58;;;;;;;12.73;7.20;;;15.80;1.00;;;;;;5050470;28;20452;-76
2022/10/31 12:47:27;;;;;;;13.13;6.50;;;15.60;99.90;;;;;;5050679;28;20466;-77
2022/10/31 12:49:52;;;;;;;17.70;7.60;;;15.60;99.90;;;;;;5051067;28;20534;-73
2022/10/31 12:52:21;;;;;;;15.83;6.37;;;15.60;99.90;;;;;;5055510;28;20464;-73
2022/10/31 12:54:55;;;;;;;13.93;6.40;;;15.70;99.90;;;;;;5055306;28;20171;-74
2022/10/31 12:57:42;;;;;;;7.60;6.43;;;15.70;99.90;;;;;;5056979;28;20456;-78
2022/10/31 13:00:20;;;;;;;10.20;5.77;;;15.80;99.90;;;;;;5056919;28;20417;-72